Ravels, Belgium
Current Conditions -  °F | °C
As of 1:05 PM on Thursday 30 Oct 2014 (Local Time) from EHGR Reporting Station
Haze Haze  
Wind Chill: 59°   Ceiling: 10000
Heat Index: 59°   Visibility: 4mi
Dew Point: 57°   Wind: 9mph
Humidity: 94%   Direction: 170°S
Pressure: 30.15"   Gusts: NA
Location:  51.37°N, 4.99°E
Report Text: EHGR 301205Z AUTO 17008KT 6000 BR FEW007 OVC100 15/14 Q1021 WHT 16009KT 7000 SCT007 BKN150 BECMG NSC
Loading
Personal Weather Stations






























Interactive Weather Map New forecast layout! Learn more

10-Day Weather Forecast

Advertisements
Track Severe Weather on mobile